Time;durP1;ratioP1;P1;durP2;ratioP2;P2;SDS_P1;SDS_P2;PMS_P1;PMS_P2;Temp;Humidity;BMP_temperature;BMP_pressure;BME280_temperature;BME280_humidity;BME280_pressure;Samples;Min_cycle;Max_cycle;Signal;HPM_P1;HPM_P2
2022/06/08 00:00:00;;;;;;;4.87;1.20;;;;;;;;;;4977890;28;20211;-30
2022/06/08 00:02:28;;;;;;;1.70;0.90;;;;;;;;;;4976016;28;20212;-32
2022/06/08 00:04:55;;;;;;;0.90;0.90;;;;;;;;;;4991690;28;20291;-35
2022/06/08 00:09:51;;;;;;;0.87;0.87;;;;;;;;;;4972695;28;20216;-32
2022/06/08 00:12:19;;;;;;;7.07;1.47;;;;;;;;;;4966938;28;20215;-33
2022/06/08 00:14:47;;;;;;;3.23;1.70;;;;;;;;;;4975228;28;20212;-33
2022/06/08 00:17:14;;;;;;;1.53;1.40;;;;;;;;;;4961494;28;20225;-37
2022/06/08 00:19:41;;;;;;;5.93;1.73;;;;;;;;;;4962214;28;20212;-31
2022/06/08 00:22:08;;;;;;;5.47;1.40;;;;;;;;;;4974786;28;20219;-38
2022/06/08 00:24:35;;;;;;;1.50;1.10;;;;;;;;;;4972370;28;20213;-35
2022/06/08 00:27:02;;;;;;;2.80;1.40;;;;;;;;;;4963313;28;20231;-32
2022/06/08 00:29:31;;;;;;;6.53;1.63;;;;;;;;;;4971035;28;20225;-34
2022/06/08 00:31:58;;;;;;;1.93;1.53;;;;;;;;;;4961378;28;20292;-35
2022/06/08 00:34:25;;;;;;;8.70;1.90;;;;;;;;;;4971777;28;20464;-31
2022/06/08 00:36:52;;;;;;;9.77;1.70;;;;;;;;;;4964326;28;20300;-35
2022/06/08 00:39:20;;;;;;;1.50;1.40;;;;;;;;;;4955582;28;20300;-38
2022/06/08 00:41:48;;;;;;;9.30;1.40;;;;;;;;;;4958409;28;20268;-32
2022/06/08 00:44:18;;;;;;;6.90;1.67;;;;;;;;;;4960424;28;20201;-37
2022/06/08 00:46:47;;;;;;;4.63;1.30;;;;;;;;;;4958247;28;20228;-38
2022/06/08 00:49:18;;;;;;;2.43;1.30;;;;;;;;;;4967168;28;20217;-35
2022/06/08 00:51:45;;;;;;;2.00;1.30;;;;;;;;;;4957295;28;20198;-31
2022/06/08 00:54:16;;;;;;;5.17;1.60;;;;;;;;;;4955661;28;20305;-34
2022/06/08 00:56:46;;;;;;;3.93;1.50;;;;;;;;;;4969044;28;20229;-38
2022/06/08 00:59:13;;;;;;;4.37;1.10;;;;;;;;;;4968780;28;20220;-36
2022/06/08 01:01:40;;;;;;;1.70;1.30;;;;;;;;;;4962387;28;20281;-37
2022/06/08 01:04:10;;;;;;;2.57;1.20;;;;;;;;;;4972897;28;20196;-36
2022/06/08 01:06:37;;;;;;;1.20;1.20;;;;;;;;;;4966072;28;20252;-37
2022/06/08 01:09:05;;;;;;;2.67;1.30;;;;;;;;;;4955279;28;20243;-36
2022/06/08 01:11:37;;;;;;;3.27;1.50;;;;;;;;;;4970900;28;20205;-32
2022/06/08 01:14:06;;;;;;;5.07;1.30;;;;;;;;;;4959810;28;20189;-36
2022/06/08 01:16:33;;;;;;;3.40;1.23;;;;;;;;;;4970267;28;20235;-34
2022/06/08 01:19:02;;;;;;;2.17;1.43;;;;;;;;;;4963619;28;20200;-33
2022/06/08 01:21:49;;;;;;;2.27;1.53;;;;;;;;;;4967072;28;20210;-38
2022/06/08 01:24:17;;;;;;;1.33;1.30;;;;;;;;;;4955589;28;20224;-31
2022/06/08 01:26:45;;;;;;;1.50;1.40;;;;;;;;;;4962493;28;20240;-34
2022/06/08 01:29:17;;;;;;;1.80;1.70;;;;;;;;;;4970854;28;20228;-40
2022/06/08 01:31:48;;;;;;;1.90;1.70;;;;;;;;;;4971307;28;20211;-36
2022/06/08 01:34:20;;;;;;;2.87;1.73;;;;;;;;;;4955050;28;20208;-31
2022/06/08 01:36:54;;;;;;;3.33;1.50;;;;;;;;;;4973363;28;20266;-33
2022/06/08 01:39:27;;;;;;;2.80;1.60;;;;;;;;;;4971671;28;20283;-40
2022/06/08 01:42:04;;;;;;;1.43;1.33;;;;;;;;;;4973963;28;20201;-38
2022/06/08 01:47:35;;;;;;;1.37;1.27;;;;;;;;;;4970957;28;20235;-33
2022/06/08 01:50:06;;;;;;;1.20;1.20;;;;;;;;;;4966483;28;20239;-32
2022/06/08 01:52:40;;;;;;;1.57;1.47;;;;;;;;;;4972982;28;20640;-37
2022/06/08 01:55:10;;;;;;;2.20;1.20;;;;;;;;;;4968868;28;20204;-34
2022/06/08 01:57:56;;;;;;;2.60;1.40;;;;;;;;;;4963500;28;20233;-35
2022/06/08 02:00:25;;;;;;;2.43;1.50;;;;;;;;;;4974411;28;20231;-37
2022/06/08 02:02:55;;;;;;;1.60;1.50;;;;;;;;;;4964638;28;20216;-37
2022/06/08 02:05:27;;;;;;;1.47;1.37;;;;;;;;;;4971155;28;20214;-36
2022/06/08 02:07:58;;;;;;;1.57;1.43;;;;;;;;;;4955076;28;20213;-32
2022/06/08 02:10:27;;;;;;;2.50;1.43;;;;;;;;;;4957205;28;20197;-34
2022/06/08 02:12:56;;;;;;;1.30;1.30;;;;;;;;;;4956368;28;20198;-34
2022/06/08 02:15:26;;;;;;;1.60;1.50;;;;;;;;;;4966730;28;20292;-36
2022/06/08 02:17:55;;;;;;;2.27;1.80;;;;;;;;;;4961518;28;20208;-33
2022/06/08 02:20:28;;;;;;;3.30;1.80;;;;;;;;;;4957264;28;20264;-37
2022/06/08 02:22:58;;;;;;;1.60;1.50;;;;;;;;;;4972313;28;20192;-35
2022/06/08 02:25:28;;;;;;;7.07;1.80;;;;;;;;;;4971786;28;20208;-27
2022/06/08 02:28:00;;;;;;;1.63;1.53;;;;;;;;;;4957212;28;20201;-36
2022/06/08 02:30:28;;;;;;;1.97;1.73;;;;;;;;;;4954362;28;20189;-35
2022/06/08 02:35:48;;;;;;;1.50;1.50;;;;;;;;;;4963717;28;20236;-38
2022/06/08 02:38:19;;;;;;;1.70;1.60;;;;;;;;;;4974409;28;20292;-34
2022/06/08 02:40:48;;;;;;;2.90;1.80;;;;;;;;;;4956165;28;20216;-36
2022/06/08 02:43:18;;;;;;;1.80;1.70;;;;;;;;;;4954433;28;20233;-32
2022/06/08 02:45:46;;;;;;;4.60;1.80;;;;;;;;;;4972310;28;20231;-33
2022/06/08 02:48:15;;;;;;;2.50;1.67;;;;;;;;;;4965529;28;20200;-38
2022/06/08 02:50:50;;;;;;;1.83;1.73;;;;;;;;;;4969117;28;20202;-37
2022/06/08 02:53:35;;;;;;;3.63;1.80;;;;;;;;;;4977475;28;20188;-34
2022/06/08 02:56:07;;;;;;;3.83;1.77;;;;;;;;;;4968677;28;20225;-36
2022/06/08 02:58:39;;;;;;;1.73;1.50;;;;;;;;;;4962141;28;20205;-34
2022/06/08 03:01:09;;;;;;;4.33;1.60;;;;;;;;;;4969074;28;20195;-30
2022/06/08 03:03:40;;;;;;;1.60;1.50;;;;;;;;;;4964575;28;20209;-34
2022/06/08 03:06:08;;;;;;;4.47;1.43;;;;;;;;;;4957980;28;20225;-30
2022/06/08 03:08:37;;;;;;;8.13;1.70;;;;;;;;;;4957915;28;20236;-36
2022/06/08 03:11:06;;;;;;;5.13;1.30;;;;;;;;;;4970276;28;20211;-33
2022/06/08 03:13:36;;;;;;;6.37;1.23;;;;;;;;;;4966403;28;20296;-38
2022/06/08 03:16:04;;;;;;;2.87;1.40;;;;;;;;;;4973910;28;20228;-32
2022/06/08 03:18:32;;;;;;;6.63;1.10;;;;;;;;;;4972295;28;20205;-34
2022/06/08 03:21:00;;;;;;;5.80;1.10;;;;;;;;;;4965653;28;20225;-30
2022/06/08 03:23:27;;;;;;;5.40;1.10;;;;;;;;;;4957990;28;20213;-35
2022/06/08 03:25:55;;;;;;;3.20;1.23;;;;;;;;;;4962464;28;20228;-39
2022/06/08 03:28:23;;;;;;;3.50;0.93;;;;;;;;;;4960304;28;20284;-35
2022/06/08 03:30:50;;;;;;;3.13;0.90;;;;;;;;;;4972043;28;20214;-35
2022/06/08 03:33:17;;;;;;;1.70;1.10;;;;;;;;;;4963527;28;20205;-35
2022/06/08 03:35:44;;;;;;;2.93;1.13;;;;;;;;;;4973756;28;20217;-32
2022/06/08 03:38:12;;;;;;;2.40;0.90;;;;;;;;;;4976777;28;20209;-35
2022/06/08 03:40:39;;;;;;;1.77;0.80;;;;;;;;;;4972600;28;20215;-31
2022/06/08 03:43:06;;;;;;;1.53;0.77;;;;;;;;;;4965318;28;20212;-28
2022/06/08 03:45:37;;;;;;;0.90;0.90;;;;;;;;;;4974012;28;20219;-30
2022/06/08 03:48:05;;;;;;;3.23;1.27;;;;;;;;;;4963083;28;20205;-36
2022/06/08 03:50:32;;;;;;;4.73;1.10;;;;;;;;;;4975968;28;20228;-34
2022/06/08 03:53:01;;;;;;;4.30;1.30;;;;;;;;;;4976618;28;20212;-33
2022/06/08 03:55:30;;;;;;;0.90;0.90;;;;;;;;;;4971094;28;20213;-32
2022/06/08 03:57:57;;;;;;;1.00;1.00;;;;;;;;;;4964972;28;20207;-31
2022/06/08 04:00:26;;;;;;;4.20;1.23;;;;;;;;;;4961205;28;20197;-31
2022/06/08 04:02:55;;;;;;;2.73;1.10;;;;;;;;;;4961384;28;20213;-33
2022/06/08 04:05:22;;;;;;;1.10;1.10;;;;;;;;;;4956097;28;20212;-34
2022/06/08 04:07:49;;;;;;;2.00;1.00;;;;;;;;;;4974931;28;20327;-33
2022/06/08 04:10:16;;;;;;;2.00;1.20;;;;;;;;;;4964033;28;20212;-32
2022/06/08 04:12:43;;;;;;;1.83;1.20;;;;;;;;;;4964357;28;20204;-33
2022/06/08 04:15:41;;;;;;;5.60;1.03;;;;;;;;;;4969113;28;20213;-34
2022/06/08 04:17:59;;;;;;;0.93;0.93;;;;;;;;;;4962374;28;20205;-31
2022/06/08 04:20:26;;;;;;;3.67;1.10;;;;;;;;;;4956711;28;20202;-28
2022/06/08 04:22:54;;;;;;;4.40;1.10;;;;;;;;;;4975532;28;20284;-31
2022/06/08 04:25:21;;;;;;;1.27;1.17;;;;;;;;;;4968341;28;20205;-35
2022/06/08 04:27:48;;;;;;;5.63;1.13;;;;;;;;;;4962223;28;20229;-30
2022/06/08 04:30:15;;;;;;;10.73;1.40;;;;;;;;;;4960230;28;20225;-35
2022/06/08 04:32:42;;;;;;;1.20;1.10;;;;;;;;;;4961351;28;20218;-29
2022/06/08 04:35:11;;;;;;;10.60;1.63;;;;;;;;;;4960685;28;20240;-28
2022/06/08 04:37:39;;;;;;;11.30;1.47;;;;;;;;;;4966795;28;20221;-32
2022/06/08 04:40:06;;;;;;;6.37;1.13;;;;;;;;;;4956511;28;20206;-37
2022/06/08 04:42:34;;;;;;;4.70;1.33;;;;;;;;;;4966871;28;20205;-31
2022/06/08 04:45:01;;;;;;;4.47;1.70;;;;;;;;;;4965252;28;20200;-32
2022/06/08 04:47:28;;;;;;;2.77;1.43;;;;;;;;;;4951417;28;20236;-29
2022/06/08 04:49:55;;;;;;;6.97;1.40;;;;;;;;;;4967499;28;20221;-28
2022/06/08 04:52:24;;;;;;;4.03;1.60;;;;;;;;;;4960048;28;20201;-31
2022/06/08 04:54:51;;;;;;;6.00;1.30;;;;;;;;;;4959135;28;20209;-29
2022/06/08 04:57:19;;;;;;;4.70;1.80;;;;;;;;;;4963275;28;20229;-33
2022/06/08 04:59:46;;;;;;;12.07;1.60;;;;;;;;;;4966525;28;20211;-33
2022/06/08 05:02:42;;;;;;;6.37;1.63;;;;;;;;;;4967351;28;20206;-37
2022/06/08 05:05:00;;;;;;;1.37;1.30;;;;;;;;;;4963057;28;20217;-32
2022/06/08 05:07:28;;;;;;;5.93;2.23;;;;;;;;;;4971229;28;20227;-29
2022/06/08 05:09:57;;;;;;;3.47;1.73;;;;;;;;;;4968408;28;20231;-33
2022/06/08 05:12:24;;;;;;;5.93;1.60;;;;;;;;;;4966313;28;20211;-35
2022/06/08 05:14:51;;;;;;;2.10;1.90;;;;;;;;;;4973880;28;20203;-32
2022/06/08 05:17:19;;;;;;;2.13;2.00;;;;;;;;;;4963287;28;20229;-34
2022/06/08 05:19:46;;;;;;;5.40;2.17;;;;;;;;;;4954502;28;20210;-34
2022/06/08 05:22:14;;;;;;;4.80;1.80;;;;;;;;;;4966053;28;20336;-36
2022/06/08 05:24:43;;;;;;;4.43;2.43;;;;;;;;;;4967718;28;20317;-31
2022/06/08 05:27:10;;;;;;;2.97;2.37;;;;;;;;;;4971348;28;20225;-35
2022/06/08 05:29:37;;;;;;;9.57;2.43;;;;;;;;;;4973545;28;20220;-28
2022/06/08 05:32:05;;;;;;;2.63;1.87;;;;;;;;;;4962417;28;20204;-33
2022/06/08 05:34:32;;;;;;;2.30;2.20;;;;;;;;;;4966060;28;20209;-35
2022/06/08 05:36:59;;;;;;;2.67;2.40;;;;;;;;;;4963733;28;20272;-31
2022/06/08 05:39:27;;;;;;;4.00;2.27;;;;;;;;;;4961416;28;20205;-31
2022/06/08 05:41:55;;;;;;;3.97;2.60;;;;;;;;;;4960756;28;20202;-32
2022/06/08 05:44:24;;;;;;;4.93;2.50;;;;;;;;;;4952901;28;20252;-31
2022/06/08 05:46:52;;;;;;;12.77;3.17;;;;;;;;;;4954834;28;20264;-31
2022/06/08 05:49:19;;;;;;;3.30;2.70;;;;;;;;;;4967605;28;20232;-29
2022/06/08 05:51:47;;;;;;;9.03;2.83;;;;;;;;;;4955906;28;20211;-32
2022/06/08 05:54:14;;;;;;;5.90;2.47;;;;;;;;;;4955059;28;20221;-34
2022/06/08 05:56:42;;;;;;;2.90;2.40;;;;;;;;;;4962439;28;20232;-30
2022/06/08 05:59:10;;;;;;;2.23;2.10;;;;;;;;;;4962667;28;20233;-34
2022/06/08 06:01:37;;;;;;;2.33;1.93;;;;;;;;;;4959328;28;20215;-30
2022/06/08 06:04:07;;;;;;;2.93;2.30;;;;;;;;;;4974414;28;20209;-32
2022/06/08 06:06:35;;;;;;;2.10;1.93;;;;;;;;;;4974081;28;20228;-30
2022/06/08 06:11:32;;;;;;;2.27;2.07;;;;;;;;;;4959842;28;20304;-39
2022/06/08 06:13:59;;;;;;;2.43;2.23;;;;;;;;;;4968403;28;20730;-41
2022/06/08 06:16:28;;;;;;;2.30;2.20;;;;;;;;;;4969829;28;20224;-42
2022/06/08 06:18:55;;;;;;;3.90;2.00;;;;;;;;;;4967733;28;20240;-45
2022/06/08 06:21:25;;;;;;;2.47;1.80;;;;;;;;;;4958732;28;20198;-43
2022/06/08 06:23:52;;;;;;;2.70;2.20;;;;;;;;;;4956130;28;20211;-47
2022/06/08 06:26:19;;;;;;;2.20;2.00;;;;;;;;;;4965188;28;20229;-40
2022/06/08 06:28:48;;;;;;;2.20;1.97;;;;;;;;;;4957138;28;20661;-45
2022/06/08 06:31:16;;;;;;;2.23;2.03;;;;;;;;;;4959928;28;20224;-46
2022/06/08 06:33:45;;;;;;;2.70;2.30;;;;;;;;;;4967868;28;20206;-44
2022/06/08 06:36:12;;;;;;;2.10;1.90;;;;;;;;;;4970947;28;20225;-43
2022/06/08 06:38:39;;;;;;;1.90;1.80;;;;;;;;;;4975850;28;20365;-43
2022/06/08 06:41:06;;;;;;;2.90;2.00;;;;;;;;;;4972136;28;20212;-46
2022/06/08 06:43:35;;;;;;;3.87;2.10;;;;;;;;;;4970815;28;20323;-45
2022/06/08 06:46:02;;;;;;;1.70;1.60;;;;;;;;;;4955873;28;20230;-41
2022/06/08 06:48:29;;;;;;;2.77;1.93;;;;;;;;;;4960471;28;20210;-45
2022/06/08 06:50:58;;;;;;;4.07;2.00;;;;;;;;;;4968304;28;20687;-46
2022/06/08 06:53:25;;;;;;;4.60;2.03;;;;;;;;;;4957438;29;20224;-42
2022/06/08 06:55:52;;;;;;;2.90;1.83;;;;;;;;;;4956953;28;20225;-40
2022/06/08 06:58:19;;;;;;;2.40;1.70;;;;;;;;;;4967331;28;20202;-41
2022/06/08 07:00:47;;;;;;;1.80;1.70;;;;;;;;;;4965249;28;20679;-40
2022/06/08 07:03:14;;;;;;;2.57;1.77;;;;;;;;;;4966640;28;20294;-43
2022/06/08 07:05:41;;;;;;;4.93;1.67;;;;;;;;;;4964197;28;20219;-42
2022/06/08 07:08:10;;;;;;;1.87;1.70;;;;;;;;;;4975727;28;20211;-42
2022/06/08 07:10:37;;;;;;;2.50;1.63;;;;;;;;;;4971256;28;20230;-39
2022/06/08 07:13:05;;;;;;;1.57;1.40;;;;;;;;;;4966623;28;20211;-44
2022/06/08 07:15:32;;;;;;;2.00;1.67;;;;;;;;;;4967430;28;20233;-45
2022/06/08 07:17:59;;;;;;;2.63;1.80;;;;;;;;;;4958328;28;20201;-44
2022/06/08 07:20:26;;;;;;;3.00;1.77;;;;;;;;;;4964596;28;20210;-39
2022/06/08 07:22:54;;;;;;;3.90;1.80;;;;;;;;;;4975553;28;20212;-44
2022/06/08 07:25:22;;;;;;;1.83;1.47;;;;;;;;;;4965439;28;20207;-39
2022/06/08 07:27:49;;;;;;;1.83;1.30;;;;;;;;;;4963804;28;20220;-43
2022/06/08 07:30:17;;;;;;;3.50;1.40;;;;;;;;;;4975309;28;20220;-45
2022/06/08 07:32:44;;;;;;;2.50;1.20;;;;;;;;;;4967800;28;20207;-45
2022/06/08 07:35:11;;;;;;;3.20;1.37;;;;;;;;;;4961068;28;20204;-40
2022/06/08 07:37:38;;;;;;;1.37;1.13;;;;;;;;;;4963891;28;20307;-45
2022/06/08 07:40:06;;;;;;;1.30;1.20;;;;;;;;;;4957099;28;20209;-43
2022/06/08 07:42:36;;;;;;;4.50;1.30;;;;;;;;;;4957349;28;20212;-43
2022/06/08 07:45:04;;;;;;;3.57;1.10;;;;;;;;;;4966407;28;20204;-43
2022/06/08 07:47:31;;;;;;;2.50;1.40;;;;;;;;;;4965656;28;20327;-45
2022/06/08 07:49:57;;;;;;;1.13;1.03;;;;;;;;;;4963715;28;20228;-41
2022/06/08 07:52:24;;;;;;;1.97;1.20;;;;;;;;;;4956832;28;20199;-41
2022/06/08 07:54:52;;;;;;;2.97;1.43;;;;;;;;;;4955046;28;20797;-44
2022/06/08 07:57:20;;;;;;;1.50;1.20;;;;;;;;;;4958964;28;20228;-42
2022/06/08 07:59:49;;;;;;;1.20;1.10;;;;;;;;;;4974117;28;20234;-43
2022/06/08 08:02:16;;;;;;;5.33;1.37;;;;;;;;;;4971608;28;20216;-43
2022/06/08 08:04:44;;;;;;;2.20;1.20;;;;;;;;;;4960736;28;20216;-44
2022/06/08 08:07:12;;;;;;;1.17;0.90;;;;;;;;;;4976093;28;20229;-39
2022/06/08 08:09:39;;;;;;;4.47;1.33;;;;;;;;;;4972283;28;20226;-38
2022/06/08 08:12:09;;;;;;;6.80;1.30;;;;;;;;;;4962832;28;20213;-46
2022/06/08 08:14:36;;;;;;;5.27;1.57;;;;;;;;;;4972534;28;20315;-43
2022/06/08 08:17:06;;;;;;;4.47;1.30;;;;;;;;;;4957735;28;20228;-46
2022/06/08 08:19:33;;;;;;;1.73;1.00;;;;;;;;;;4961137;28;20219;-41
2022/06/08 08:22:00;;;;;;;3.37;1.07;;;;;;;;;;4963132;28;20243;-40
2022/06/08 08:24:28;;;;;;;2.33;1.20;;;;;;;;;;4955932;28;20216;-43
2022/06/08 08:26:55;;;;;;;1.20;1.03;;;;;;;;;;4965635;28;20237;-42
2022/06/08 08:29:22;;;;;;;3.13;1.10;;;;;;;;;;4962329;28;20208;-42
2022/06/08 08:31:49;;;;;;;4.30;1.00;;;;;;;;;;4970397;28;20230;-45
2022/06/08 08:34:18;;;;;;;4.30;1.03;;;;;;;;;;4965252;28;20231;-43
2022/06/08 08:36:46;;;;;;;3.77;1.00;;;;;;;;;;4974531;28;20230;-43
2022/06/08 08:39:13;;;;;;;2.73;1.10;;;;;;;;;;4972909;28;20234;-42
2022/06/08 08:44:35;;;;;;;2.53;1.00;;;;;;;;;;4954839;28;20232;-46
2022/06/08 08:47:06;;;;;;;2.30;0.80;;;;;;;;;;4959341;28;20234;-40
2022/06/08 08:49:35;;;;;;;2.80;1.17;;;;;;;;;;4962905;28;20222;-44
2022/06/08 08:52:05;;;;;;;3.87;1.33;;;;;;;;;;4955592;28;20311;-40
2022/06/08 08:54:35;;;;;;;1.23;1.07;;;;;;;;;;4955291;28;20628;-41
2022/06/08 08:57:06;;;;;;;2.53;1.10;;;;;;;;;;4955521;28;20228;-46
2022/06/08 08:59:34;;;;;;;1.87;1.27;;;;;;;;;;4969263;28;20324;-44
2022/06/08 09:02:01;;;;;;;4.30;1.20;;;;;;;;;;4954702;28;20267;-42
2022/06/08 09:04:29;;;;;;;3.90;1.10;;;;;;;;;;4966528;28;20216;-43
2022/06/08 09:06:58;;;;;;;2.13;1.10;;;;;;;;;;4965550;28;20232;-41
2022/06/08 09:09:29;;;;;;;3.20;1.00;;;;;;;;;;4971680;28;20654;-44
2022/06/08 09:11:56;;;;;;;2.23;1.23;;;;;;;;;;4958775;28;20238;-44
2022/06/08 09:14:25;;;;;;;3.53;1.13;;;;;;;;;;4969102;28;20196;-45
2022/06/08 09:16:54;;;;;;;4.10;1.13;;;;;;;;;;4965577;28;20326;-42
2022/06/08 09:19:29;;;;;;;2.73;1.20;;;;;;;;;;4958149;28;20210;-43
2022/06/08 09:22:00;;;;;;;3.20;1.13;;;;;;;;;;4974913;28;20274;-38
2022/06/08 09:24:30;;;;;;;2.97;1.30;;;;;;;;;;4971319;28;20195;-42
2022/06/08 09:27:09;;;;;;;1.40;1.03;;;;;;;;;;4965318;28;20237;-41
2022/06/08 09:29:47;;;;;;;1.43;0.90;;;;;;;;;;4956827;28;20220;-45
2022/06/08 09:32:23;;;;;;;5.60;1.00;;;;;;;;;;4956639;28;20232;-44
2022/06/08 09:34:55;;;;;;;3.93;0.90;;;;;;;;;;4968428;28;20202;-46
2022/06/08 09:37:26;;;;;;;2.93;0.60;;;;;;;;;;4969888;28;20231;-42
2022/06/08 09:39:54;;;;;;;1.23;0.80;;;;;;;;;;4969031;28;20208;-44
2022/06/08 09:42:39;;;;;;;2.50;0.80;;;;;;;;;;4969403;28;20201;-42
2022/06/08 09:45:07;;;;;;;1.73;0.70;;;;;;;;;;4972916;28;20219;-45
2022/06/08 09:53:18;;;;;;;17.67;1.60;;;;;;;;;;4953415;29;20208;-41
2022/06/08 09:55:53;;;;;;;1.80;0.90;;;;;;;;;;4955273;28;20713;-43
2022/06/08 09:58:31;;;;;;;1.43;1.03;;;;;;;;;;4962387;28;20203;-43
2022/06/08 10:01:00;;;;;;;3.13;1.00;;;;;;;;;;4960916;28;20203;-45
2022/06/08 10:03:36;;;;;;;0.93;0.93;;;;;;;;;;4963231;28;20212;-45
2022/06/08 10:06:08;;;;;;;3.13;0.90;;;;;;;;;;4952860;28;20227;-38
2022/06/08 10:08:46;;;;;;;0.83;0.67;;;;;;;;;;4964011;28;20219;-44
2022/06/08 10:14:01;;;;;;;2.20;0.90;;;;;;;;;;4966888;28;20214;-44
2022/06/08 10:16:31;;;;;;;2.03;0.70;;;;;;;;;;4954524;28;20238;-40
2022/06/08 10:19:01;;;;;;;2.20;0.90;;;;;;;;;;4956293;28;20295;-43
2022/06/08 10:21:30;;;;;;;2.40;0.70;;;;;;;;;;4967014;28;20291;-42
2022/06/08 10:24:02;;;;;;;1.07;0.70;;;;;;;;;;4964738;28;20218;-41
2022/06/08 10:26:33;;;;;;;0.73;0.60;;;;;;;;;;4958567;28;20240;-41
2022/06/08 10:29:03;;;;;;;2.90;0.80;;;;;;;;;;4964641;28;20208;-43
2022/06/08 10:31:32;;;;;;;5.07;0.80;;;;;;;;;;4958460;28;20231;-45
2022/06/08 10:34:06;;;;;;;3.10;0.80;;;;;;;;;;4966467;28;20200;-44
2022/06/08 10:36:34;;;;;;;1.50;0.80;;;;;;;;;;4958144;28;20251;-43
2022/06/08 10:39:04;;;;;;;0.80;0.73;;;;;;;;;;4977193;28;20210;-44
2022/06/08 10:44:26;;;;;;;1.87;0.77;;;;;;;;;;4969384;28;20705;-39
2022/06/08 10:46:54;;;;;;;3.93;0.80;;;;;;;;;;4959254;28;20228;-44
2022/06/08 10:49:22;;;;;;;2.77;1.00;;;;;;;;;;4957839;28;20216;-44
2022/06/08 10:52:17;;;;;;;4.43;0.87;;;;;;;;;;4958258;28;20314;-45
2022/06/08 10:54:57;;;;;;;2.73;0.77;;;;;;;;;;4954436;28;20244;-44
2022/06/08 10:57:47;;;;;;;1.00;0.70;;;;;;;;;;4966854;28;20238;-42
2022/06/08 11:00:26;;;;;;;2.70;1.00;;;;;;;;;;4952488;28;20243;-43
2022/06/08 11:02:55;;;;;;;2.53;1.20;;;;;;;;;;4956476;28;20208;-44
2022/06/08 11:05:30;;;;;;;2.63;0.77;;;;;;;;;;4959424;28;20211;-40
2022/06/08 11:08:14;;;;;;;1.50;1.00;;;;;;;;;;4972820;28;20273;-45
2022/06/08 11:11:03;;;;;;;0.97;0.73;;;;;;;;;;4971733;28;20219;-44
2022/06/08 11:13:35;;;;;;;1.10;0.50;;;;;;;;;;4965524;28;20279;-42
2022/06/08 11:16:08;;;;;;;2.17;0.90;;;;;;;;;;4960682;28;20227;-44
2022/06/08 11:18:41;;;;;;;1.77;0.90;;;;;;;;;;4965900;28;20209;-43
2022/06/08 11:21:23;;;;;;;2.37;0.80;;;;;;;;;;4957916;28;20203;-44
2022/06/08 11:23:54;;;;;;;5.43;1.30;;;;;;;;;;4969722;28;20267;-45
2022/06/08 11:26:49;;;;;;;3.43;0.90;;;;;;;;;;4965674;28;20250;-44
2022/06/08 11:29:34;;;;;;;1.03;1.03;;;;;;;;;;4968187;28;20204;-42
2022/06/08 11:32:01;;;;;;;0.63;0.60;;;;;;;;;;4961755;28;20228;-40
2022/06/08 11:34:42;;;;;;;2.40;0.90;;;;;;;;;;4961776;28;20214;-39
2022/06/08 11:37:15;;;;;;;1.37;0.90;;;;;;;;;;4962928;28;20229;-41
2022/06/08 11:39:49;;;;;;;1.23;0.80;;;;;;;;;;4970521;28;20208;-43
2022/06/08 11:42:24;;;;;;;0.80;0.70;;;;;;;;;;4968674;28;20212;-39
2022/06/08 11:44:52;;;;;;;1.47;0.90;;;;;;;;;;4969449;28;20196;-42
2022/06/08 11:47:22;;;;;;;2.07;0.90;;;;;;;;;;4967888;28;20234;-42
2022/06/08 11:49:56;;;;;;;2.00;1.13;;;;;;;;;;4963219;28;20674;-39
2022/06/08 11:52:28;;;;;;;2.40;0.90;;;;;;;;;;4971786;28;20228;-43
2022/06/08 11:55:03;;;;;;;3.20;0.80;;;;;;;;;;4954451;28;20216;-44
2022/06/08 11:57:31;;;;;;;2.03;0.80;;;;;;;;;;4960847;28;20262;-43
2022/06/08 11:59:59;;;;;;;2.70;0.83;;;;;;;;;;4965456;28;20236;-40
2022/06/08 12:02:35;;;;;;;1.47;0.70;;;;;;;;;;4963374;28;20215;-40
2022/06/08 12:05:03;;;;;;;2.47;0.87;;;;;;;;;;4962777;28;20214;-43
2022/06/08 12:07:40;;;;;;;1.60;0.77;;;;;;;;;;4964434;28;20323;-43
2022/06/08 12:10:08;;;;;;;1.57;0.90;;;;;;;;;;4973195;28;20215;-39
2022/06/08 12:12:37;;;;;;;2.30;0.77;;;;;;;;;;4957005;28;20221;-44
2022/06/08 12:15:22;;;;;;;0.97;0.87;;;;;;;;;;4964905;28;20205;-43
2022/06/08 12:20:31;;;;;;;1.67;0.90;;;;;;;;;;4967002;28;20216;-30
2022/06/08 12:23:00;;;;;;;3.13;0.80;;;;;;;;;;4976061;28;20242;-39
2022/06/08 12:25:28;;;;;;;2.37;0.70;;;;;;;;;;4967329;28;20233;-35
2022/06/08 12:27:57;;;;;;;2.53;0.60;;;;;;;;;;4975297;28;20212;-36
2022/06/08 12:30:26;;;;;;;3.77;0.80;;;;;;;;;;4968357;28;20213;-34
2022/06/08 12:32:55;;;;;;;1.47;0.70;;;;;;;;;;4960372;28;20233;-39
2022/06/08 12:35:31;;;;;;;2.78;0.70;;;;;;;;;;4956978;28;20213;-34
2022/06/08 12:38:28;;;;;;;0.73;0.60;;;;;;;;;;4976002;28;20189;-36
2022/06/08 12:41:03;;;;;;;2.97;0.80;;;;;;;;;;4972236;28;20201;-30
2022/06/08 12:43:50;;;;;;;0.77;0.57;;;;;;;;;;4964598;28;20215;-31
2022/06/08 12:46:24;;;;;;;1.80;0.80;;;;;;;;;;4972646;28;20232;-36
2022/06/08 12:48:58;;;;;;;3.25;0.80;;;;;;;;;;4971866;28;20220;-35
2022/06/08 12:51:32;;;;;;;2.20;0.80;;;;;;;;;;4963478;28;20244;-32
2022/06/08 12:54:01;;;;;;;5.95;1.35;;;;;;;;;;4955571;28;20196;-36
2022/06/08 12:56:28;;;;;;;0.43;0.40;;;;;;;;;;4958688;28;20233;-35
2022/06/08 12:58:56;;;;;;;1.10;0.70;;;;;;;;;;4963264;28;20201;-33
2022/06/08 13:01:25;;;;;;;0.73;0.70;;;;;;;;;;4969796;28;20659;-34
2022/06/08 13:03:53;;;;;;;1.10;1.00;;;;;;;;;;4963494;28;20205;-33
2022/06/08 13:06:20;;;;;;;0.77;0.70;;;;;;;;;;4960315;28;20605;-32
2022/06/08 13:08:49;;;;;;;0.83;0.67;;;;;;;;;;4978014;28;20209;-34
2022/06/08 13:11:18;;;;;;;1.47;0.57;;;;;;;;;;4982924;28;20216;-33
2022/06/08 13:13:45;;;;;;;2.23;0.70;;;;;;;;;;4974997;28;20216;-35
2022/06/08 13:16:14;;;;;;;2.77;0.77;;;;;;;;;;4962844;28;20232;-33
2022/06/08 13:18:45;;;;;;;1.73;0.67;;;;;;;;;;4975642;28;20215;-38
2022/06/08 13:21:13;;;;;;;0.70;0.70;;;;;;;;;;4974268;28;20224;-29
2022/06/08 13:23:40;;;;;;;1.40;0.90;;;;;;;;;;4974775;28;20220;-34
2022/06/08 13:26:13;;;;;;;1.67;0.70;;;;;;;;;;4990708;28;20228;-34
2022/06/08 13:28:41;;;;;;;1.33;0.87;;;;;;;;;;4981638;28;20204;-33
2022/06/08 13:31:09;;;;;;;1.35;0.93;;;;;;;;;;4984128;28;20191;-34
2022/06/08 13:36:25;;;;;;;2.10;0.80;;;;;;;;;;4986976;28;20223;-30
2022/06/08 13:38:53;;;;;;;1.40;1.30;;;;;;;;;;4972591;28;20247;-35
2022/06/08 13:41:21;;;;;;;3.83;0.83;;;;;;;;;;4976832;28;20291;-34
2022/06/08 13:43:48;;;;;;;1.03;0.90;;;;;;;;;;4981178;28;20207;-35
2022/06/08 13:46:19;;;;;;;1.20;0.70;;;;;;;;;;4988687;28;20231;-30
2022/06/08 13:48:46;;;;;;;3.13;0.80;;;;;;;;;;4980592;28;20228;-30
2022/06/08 13:51:13;;;;;;;1.27;0.60;;;;;;;;;;4979595;28;20200;-36
2022/06/08 13:53:42;;;;;;;2.93;0.90;;;;;;;;;;4974624;28;20224;-29
2022/06/08 13:56:12;;;;;;;0.60;0.60;;;;;;;;;;4985089;28;20231;-34
2022/06/08 13:58:39;;;;;;;0.80;0.57;;;;;;;;;;4973620;28;20276;-33
2022/06/08 14:01:13;;;;;;;1.10;0.90;;;;;;;;;;4989506;28;20208;-37
2022/06/08 14:03:41;;;;;;;0.52;0.52;;;;;;;;;;4985554;28;20211;-32
2022/06/08 14:14:26;;;;;;;0.93;0.80;;;;;;;;;;4973761;28;20215;-29
2022/06/08 14:16:55;;;;;;;2.70;0.70;;;;;;;;;;4977723;28;20296;-32
2022/06/08 14:19:27;;;;;;;0.95;0.77;;;;;;;;;;4985631;28;20213;-30
2022/06/08 14:21:56;;;;;;;1.75;0.60;;;;;;;;;;4991865;28;20219;-34
2022/06/08 14:24:26;;;;;;;1.83;0.70;;;;;;;;;;4993316;28;20291;-30
2022/06/08 14:26:54;;;;;;;3.63;0.70;;;;;;;;;;4985601;28;20224;-31
2022/06/08 14:29:21;;;;;;;1.65;0.73;;;;;;;;;;4982699;28;20208;-35
2022/06/08 14:31:49;;;;;;;0.52;0.52;;;;;;;;;;4984912;28;20235;-34
2022/06/08 14:34:18;;;;;;;1.93;0.73;;;;;;;;;;4983690;28;20283;-33
2022/06/08 14:36:45;;;;;;;2.17;0.60;;;;;;;;;;4984415;28;20231;-35
2022/06/08 14:39:13;;;;;;;2.13;0.80;;;;;;;;;;4992426;28;20242;-39
2022/06/08 14:41:42;;;;;;;0.80;0.73;;;;;;;;;;4984200;28;20327;-36
2022/06/08 14:44:12;;;;;;;0.88;0.70;;;;;;;;;;4983894;28;20271;-33
2022/06/08 14:46:41;;;;;;;2.57;0.83;;;;;;;;;;4981276;28;20255;-34
2022/06/08 14:49:10;;;;;;;0.77;0.70;;;;;;;;;;4982131;28;20215;-30
2022/06/08 14:51:37;;;;;;;4.15;0.93;;;;;;;;;;4990889;28;20294;-34
2022/06/08 14:54:08;;;;;;;1.00;0.90;;;;;;;;;;4980240;28;20224;-33
2022/06/08 14:56:37;;;;;;;1.63;0.68;;;;;;;;;;4977777;28;20232;-35
2022/06/08 14:59:23;;;;;;;0.97;0.70;;;;;;;;;;4994834;28;20260;-28
2022/06/08 15:01:52;;;;;;;2.30;0.80;;;;;;;;;;4993746;28;20200;-35
2022/06/08 15:04:20;;;;;;;1.97;1.20;;;;;;;;;;4990849;28;20208;-32
2022/06/08 15:06:48;;;;;;;0.70;0.70;;;;;;;;;;4977627;28;20235;-36
2022/06/08 15:09:16;;;;;;;1.07;0.80;;;;;;;;;;4977000;28;20307;-29
2022/06/08 15:12:00;;;;;;;0.77;0.73;;;;;;;;;;4976800;28;20222;-34
2022/06/08 15:14:32;;;;;;;0.80;0.80;;;;;;;;;;4991567;28;20235;-33
2022/06/08 15:17:00;;;;;;;1.27;0.80;;;;;;;;;;4988479;28;20274;-33
2022/06/08 15:19:29;;;;;;;1.33;0.70;;;;;;;;;;4984658;28;20213;-32
2022/06/08 15:21:57;;;;;;;0.80;0.80;;;;;;;;;;4977189;28;20219;-35
2022/06/08 15:24:25;;;;;;;1.37;0.90;;;;;;;;;;4977107;28;20220;-30
2022/06/08 15:26:53;;;;;;;0.80;0.80;;;;;;;;;;4982850;28;20232;-34
2022/06/08 15:29:21;;;;;;;2.27;1.00;;;;;;;;;;4986784;28;20296;-33
2022/06/08 15:31:52;;;;;;;4.50;0.90;;;;;;;;;;4987213;28;20218;-31
2022/06/08 15:34:21;;;;;;;2.53;1.20;;;;;;;;;;4983864;28;20204;-30
2022/06/08 15:36:49;;;;;;;1.40;1.07;;;;;;;;;;4974895;28;20231;-31